createdAt,value
2019-01-11T00:02:40.111Z,19.00
2019-01-11T00:07:42.399Z,21.23
2019-01-11T00:12:45.392Z,16.37
2019-01-11T00:17:48.071Z,17.33
2019-01-11T00:22:50.894Z,14.57
2019-01-11T00:27:53.897Z,17.87
2019-01-11T00:32:56.165Z,18.13
2019-01-11T00:37:58.913Z,18.53
2019-01-11T00:43:01.523Z,16.53
2019-01-11T00:48:04.712Z,19.90
2019-01-11T00:53:07.502Z,17.00
2019-01-11T00:58:10.502Z,16.10
2019-01-11T01:03:13.201Z,19.37
2019-01-11T01:08:15.701Z,15.43
2019-01-11T01:13:18.700Z,16.83
2019-01-11T01:18:21.913Z,16.70
2019-01-11T01:23:25.116Z,17.23
2019-01-11T01:28:28.349Z,13.63
2019-01-11T01:33:30.728Z,13.70
2019-01-11T01:38:33.530Z,14.00
2019-01-11T01:43:36.030Z,16.27
2019-01-11T01:48:38.915Z,15.73
2019-01-11T01:53:41.418Z,16.83
2019-01-11T01:58:44.084Z,17.17
2019-01-11T02:03:46.691Z,15.37
2019-01-11T02:08:49.608Z,14.73
2019-01-11T02:13:51.806Z,14.93
2019-01-11T02:18:55.407Z,17.20
2019-01-11T02:23:58.060Z,17.33
2019-01-11T02:29:00.763Z,16.93
2019-01-11T02:34:03.678Z,16.63
2019-01-11T02:39:07.235Z,18.80
2019-01-11T02:44:10.003Z,17.47
2019-01-11T02:49:12.030Z,15.77
2019-01-11T02:54:14.104Z,19.40
2019-01-11T02:59:16.793Z,20.67
2019-01-11T03:04:19.415Z,17.67
2019-01-11T03:09:21.626Z,17.30
2019-01-11T03:14:24.303Z,17.03
2019-01-11T03:19:27.112Z,17.00
2019-01-11T03:24:29.886Z,14.60
2019-01-11T03:29:32.678Z,17.60
2019-01-11T03:34:39.273Z,16.37
2019-01-11T03:39:41.866Z,17.13
2019-01-11T03:44:44.437Z,16.93
2019-01-11T03:49:47.180Z,18.40
2019-01-11T03:54:49.339Z,16.57
2019-01-11T03:59:51.973Z,16.87
2019-01-11T04:04:54.843Z,16.20
2019-01-11T04:09:57.632Z,15.30
2019-01-11T04:15:00.241Z,15.20
2019-01-11T04:20:04.475Z,13.10
2019-01-11T04:25:09.875Z,11.47
2019-01-11T04:30:14.991Z,12.00
2019-01-11T04:35:18.284Z,12.87
2019-01-11T04:40:21.081Z,11.43
2019-01-11T04:45:23.692Z,10.43
2019-01-11T04:50:26.194Z,11.60
2019-01-11T04:55:29.193Z,10.73
2019-01-11T05:00:31.419Z,10.30
2019-01-11T05:05:34.242Z,12.03
2019-01-11T05:10:37.163Z,10.13
2019-01-11T05:15:39.880Z,9.30
2019-01-11T05:20:42.989Z,8.60
2019-01-11T05:25:45.891Z,10.00
2019-01-11T05:30:48.608Z,11.00
2019-01-11T05:35:51.472Z,10.67
2019-01-11T05:40:53.465Z,11.53
2019-01-11T05:45:56.068Z,10.30
2019-01-11T05:50:58.733Z,12.50
2019-01-11T05:56:06.701Z,10.57
2019-01-11T06:01:09.597Z,9.90
2019-01-11T06:06:12.806Z,13.90
2019-01-11T06:11:15.808Z,20.67
2019-01-11T06:16:17.917Z,21.17
2019-01-11T06:21:19.946Z,16.00
2019-01-11T06:26:22.588Z,12.40
2019-01-11T06:31:24.972Z,11.70
2019-01-11T06:36:27.569Z,11.23
2019-01-11T06:41:39.684Z,11.30
2019-01-11T06:46:42.167Z,11.70
2019-01-11T06:51:45.150Z,9.83
2019-01-11T06:56:48.282Z,9.10
2019-01-11T07:01:50.668Z,11.43
2019-01-11T07:06:53.598Z,9.27
2019-01-11T07:11:56.345Z,10.37
2019-01-11T07:16:58.377Z,8.90
2019-01-11T07:22:01.511Z,7.20
2019-01-11T07:27:03.446Z,9.60
2019-01-11T07:32:06.652Z,5.90
2019-01-11T07:37:09.468Z,7.57
2019-01-11T07:42:11.857Z,7.27
2019-01-11T07:47:14.911Z,7.97
2019-01-11T07:52:18.177Z,6.77
2019-01-11T07:57:20.255Z,7.17
2019-01-11T08:02:22.741Z,6.03
2019-01-11T08:07:24.879Z,8.13
2019-01-11T08:12:27.118Z,7.40
2019-01-11T08:17:29.509Z,8.53
2019-01-11T08:22:37.127Z,6.30
2019-01-11T08:27:39.983Z,7.70
2019-01-11T08:32:42.314Z,6.27
2019-01-11T08:37:46.534Z,8.30
2019-01-11T08:42:49.218Z,5.63
2019-01-11T08:47:51.537Z,6.07
2019-01-11T08:52:55.247Z,4.80
2019-01-11T08:57:58.278Z,3.97
2019-01-11T09:03:00.301Z,4.37
2019-01-11T09:08:03.661Z,3.63
2019-01-11T09:13:06.152Z,3.60
2019-01-11T09:18:30.042Z,3.00
2019-01-11T09:23:32.645Z,4.30
2019-01-11T09:28:35.032Z,3.10
2019-01-11T09:33:37.721Z,3.27
2019-01-11T09:38:40.498Z,3.17
2019-01-11T09:43:42.723Z,2.90
2019-01-11T09:48:45.213Z,2.27
2019-01-11T09:53:47.961Z,2.67
2019-01-11T09:58:50.067Z,2.13
2019-01-11T10:03:52.855Z,2.10
2019-01-11T10:08:55.262Z,2.33
2019-01-11T10:13:58.150Z,2.00
2019-01-11T10:19:00.803Z,2.00
2019-01-11T10:24:03.648Z,2.43
2019-01-11T10:29:06.181Z,1.40
2019-01-11T10:34:08.779Z,2.30
2019-01-11T10:39:11.398Z,1.80
2019-01-11T10:44:14.229Z,2.00
2019-01-11T10:49:17.058Z,2.20
2019-01-11T10:54:32.968Z,1.87
2019-01-11T10:59:35.296Z,2.10
2019-01-11T11:04:38.579Z,1.97
2019-01-11T11:09:41.545Z,1.93
2019-01-11T11:14:44.085Z,1.63
2019-01-11T11:19:46.881Z,3.30
2019-01-11T11:24:49.738Z,2.20
2019-01-11T11:29:52.670Z,1.57
2019-01-11T11:34:55.335Z,1.53
2019-01-11T11:39:57.784Z,2.80
2019-01-11T11:44:59.864Z,3.20
2019-01-11T11:50:02.345Z,1.90
2019-01-11T11:55:05.757Z,2.03
2019-01-11T12:00:11.651Z,2.63
2019-01-11T12:05:14.706Z,3.13
2019-01-11T12:10:17.852Z,2.13
2019-01-11T12:15:20.947Z,2.90
2019-01-11T12:20:29.148Z,3.20
2019-01-11T12:25:31.994Z,2.43
2019-01-11T12:30:34.897Z,3.17
2019-01-11T12:35:37.627Z,4.10
2019-01-11T12:40:40.501Z,4.80
2019-01-11T12:45:42.916Z,4.10
2019-01-11T12:50:45.636Z,5.07
2019-01-11T12:55:48.577Z,3.60
2019-01-11T13:00:50.810Z,4.23
2019-01-11T13:05:53.642Z,3.67
2019-01-11T13:10:56.208Z,3.93
2019-01-11T13:15:58.953Z,3.23
2019-01-11T13:21:01.453Z,4.30
2019-01-11T13:26:04.712Z,5.40
2019-01-11T13:31:07.531Z,6.17
2019-01-11T13:36:14.684Z,4.23
2019-01-11T13:41:17.331Z,4.73
2019-01-11T13:46:20.161Z,6.73
2019-01-11T13:51:22.853Z,5.47
2019-01-11T13:56:25.506Z,7.10
2019-01-11T14:01:28.384Z,6.83
2019-01-11T14:06:31.277Z,5.47
2019-01-11T14:11:33.949Z,5.43
2019-01-11T14:16:36.754Z,7.57
2019-01-11T14:21:39.431Z,6.23
2019-01-11T14:26:42.380Z,6.07
2019-01-11T14:31:45.492Z,7.90
2019-01-11T14:36:48.282Z,7.17
2019-01-11T14:41:51.254Z,7.33
2019-01-11T14:46:54.191Z,6.43
2019-01-11T14:51:57.428Z,5.83
2019-01-11T14:57:00.239Z,7.53
2019-01-11T15:02:02.893Z,6.90
2019-01-11T15:07:05.894Z,7.60
2019-01-11T15:12:08.502Z,9.30
2019-01-11T15:17:11.103Z,10.27
2019-01-11T15:22:14.398Z,7.40
2019-01-11T15:27:16.273Z,7.17
2019-01-11T15:32:18.912Z,7.77
2019-01-11T15:37:22.015Z,8.97
2019-01-11T15:42:24.785Z,8.10
2019-01-11T15:47:27.512Z,8.97
2019-01-11T15:52:33.483Z,9.20
2019-01-11T15:57:41.891Z,8.33
2019-01-11T16:02:44.652Z,11.03
2019-01-11T16:07:48.811Z,8.43
2019-01-11T16:13:20.907Z,10.83
2019-01-11T16:18:25.961Z,9.10
2019-01-11T16:23:28.822Z,9.80
2019-01-11T16:28:31.616Z,10.60
2019-01-11T16:33:34.070Z,10.63
2019-01-11T16:38:36.458Z,9.87
2019-01-11T16:43:39.724Z,9.90
2019-01-11T16:48:42.164Z,9.20
2019-01-11T16:53:45.257Z,10.00
2019-01-11T16:58:48.158Z,10.50
2019-01-11T17:03:50.661Z,11.35
2019-01-11T17:08:53.755Z,10.43
2019-01-11T17:13:56.660Z,11.13
2019-01-11T17:18:59.451Z,12.07
2019-01-11T17:24:01.959Z,9.80
2019-01-11T17:29:04.989Z,10.33
2019-01-11T17:34:08.294Z,11.20
2019-01-11T17:39:11.047Z,10.97
2019-01-11T17:44:13.566Z,11.73
2019-01-11T17:49:16.477Z,10.77
2019-01-11T17:54:19.221Z,10.87
2019-01-11T17:59:21.662Z,11.20
2019-01-11T18:04:24.473Z,9.97
2019-01-11T18:09:27.306Z,9.80
2019-01-11T18:14:29.562Z,9.80
2019-01-11T18:19:32.715Z,11.30
2019-01-11T18:24:35.679Z,10.70
2019-01-11T18:29:38.824Z,11.23
2019-01-11T18:34:41.900Z,11.53
2019-01-11T18:39:44.699Z,10.60
2019-01-11T18:44:47.589Z,11.80
2019-01-11T18:49:51.408Z,10.63
2019-01-11T18:54:54.107Z,9.90
2019-01-11T18:59:56.813Z,11.73
2019-01-11T19:04:59.713Z,12.70
2019-01-11T19:10:03.256Z,9.90
2019-01-11T19:15:08.487Z,10.83
2019-01-11T19:20:18.051Z,11.03
2019-01-11T19:25:21.281Z,9.87
2019-01-11T19:30:27.124Z,9.30
2019-01-11T19:35:29.821Z,9.93
2019-01-11T19:40:33.379Z,11.87
2019-01-11T19:45:36.631Z,8.10
2019-01-11T19:50:40.636Z,10.17
2019-01-11T19:55:43.523Z,8.33
2019-01-11T20:00:47.901Z,7.83
2019-01-11T20:05:50.402Z,8.40
2019-01-11T20:10:55.158Z,10.40
2019-01-11T20:16:01.135Z,8.50
2019-01-11T20:21:05.138Z,8.33
2019-01-11T20:26:09.530Z,8.80
2019-01-11T20:31:14.109Z,9.83
2019-01-11T20:36:17.610Z,7.90
2019-01-11T20:41:23.803Z,7.17
2019-01-11T20:46:29.987Z,8.77
2019-01-11T20:51:34.085Z,9.30
2019-01-11T20:56:38.279Z,9.20
2019-01-11T21:01:42.977Z,8.33
2019-01-11T21:06:47.751Z,11.03
2019-01-11T21:11:51.665Z,7.53
2019-01-11T21:16:54.764Z,8.90
2019-01-11T21:21:58.566Z,8.83
2019-01-11T21:27:01.956Z,7.57
2019-01-11T21:32:04.771Z,10.67
2019-01-11T21:37:08.289Z,8.37
2019-01-11T21:42:11.448Z,10.40
2019-01-11T21:47:14.063Z,7.80
2019-01-11T21:52:16.884Z,8.07
2019-01-11T21:57:19.512Z,9.30
2019-01-11T22:02:21.870Z,10.33
2019-01-11T22:07:24.157Z,8.53
2019-01-11T22:12:27.366Z,8.63
2019-01-11T22:17:30.151Z,9.07
2019-01-11T22:22:32.842Z,9.30
2019-01-11T22:27:35.777Z,9.20
2019-01-11T22:32:38.800Z,10.00
2019-01-11T22:37:41.990Z,8.13
2019-01-11T22:42:44.957Z,9.20
2019-01-11T22:47:48.085Z,8.37
2019-01-11T22:52:50.577Z,8.10
2019-01-11T22:57:53.372Z,6.87
2019-01-11T23:02:57.633Z,9.03
2019-01-11T23:08:03.193Z,9.67
2019-01-11T23:13:09.449Z,7.77
2019-01-11T23:18:14.119Z,7.20
2019-01-11T23:23:17.119Z,9.10
2019-01-11T23:28:19.565Z,8.50
2019-01-11T23:33:22.450Z,8.53
2019-01-11T23:38:25.517Z,9.30
2019-01-11T23:43:27.863Z,9.03
2019-01-11T23:48:30.567Z,7.37
2019-01-11T23:53:33.100Z,7.60
2019-01-11T23:58:35.756Z,7.50
